Time;durP1;ratioP1;P1;durP2;ratioP2;P2;SDS_P1;SDS_P2;PMS_P1;PMS_P2;Temp;Humidity;BMP_temperature;BMP_pressure;BME280_temperature;BME280_humidity;BME280_pressure;Samples;Min_cycle;Max_cycle;Signal;HPM_P1;HPM_P2
2021/11/01 00:02:15;;;;;;;9.10;1.30;;;;;;;15.28;56.44;96221.81;4984529;28;20031;-73
2021/11/01 00:04:43;;;;;;;9.90;1.60;;;;;;;15.98;55.00;96237.34;4973670;28;20034;-73
2021/11/01 00:07:10;;;;;;;7.00;1.20;;;;;;;16.57;53.20;96237.00;4976774;28;20066;-72
2021/11/01 00:09:36;;;;;;;11.88;1.40;;;;;;;15.60;55.45;96240.56;4978813;28;20523;-73
2021/11/01 00:12:03;;;;;;;14.50;1.45;;;;;;;15.29;56.59;96249.72;4981019;28;20118;-73
2021/11/01 00:14:28;;;;;;;10.27;1.45;;;;;;;15.13;56.98;96256.03;4977731;28;20185;-74
2021/11/01 00:16:54;;;;;;;10.20;1.63;;;;;;;15.86;54.69;96262.69;4981428;28;20034;-73
2021/11/01 00:19:19;;;;;;;11.25;1.83;;;;;;;15.42;55.18;96266.59;4982290;28;20037;-73
2021/11/01 00:21:45;;;;;;;8.93;1.60;;;;;;;16.33;53.54;96272.38;4963365;28;20391;-73
2021/11/01 00:24:11;;;;;;;7.97;1.52;;;;;;;16.09;53.35;96277.06;4976688;28;20507;-74
2021/11/01 00:26:36;;;;;;;10.73;3.00;;;;;;;15.92;54.02;96281.06;4983973;28;20455;-74
2021/11/01 00:29:03;;;;;;;11.45;1.48;;;;;;;16.00;53.48;96278.47;4979177;28;20571;-75
2021/11/01 00:31:31;;;;;;;12.77;1.77;;;;;;;16.43;52.52;96283.75;4978778;28;20043;-75
2021/11/01 00:33:56;;;;;;;14.70;1.58;;;;;;;16.32;52.96;96291.75;4982499;28;20062;-75
2021/11/01 00:36:22;;;;;;;16.48;1.70;;;;;;;16.58;52.06;96298.31;4975315;28;20547;-74
2021/11/01 00:38:48;;;;;;;10.55;1.30;;;;;;;16.26;52.67;96298.66;4982873;28;20559;-75
2021/11/01 00:41:15;;;;;;;8.13;1.25;;;;;;;16.16;53.46;96306.25;4981350;28;20121;-76
2021/11/01 00:43:40;;;;;;;13.27;1.42;;;;;;;16.13;53.28;96306.19;4977570;28;20122;-77
2021/11/01 00:46:06;;;;;;;7.30;1.30;;;;;;;16.67;51.85;96296.91;4980093;28;20121;-75
2021/11/01 00:48:32;;;;;;;10.98;1.52;;;;;;;16.20;52.53;96298.97;4980875;28;20439;-75
2021/11/01 00:50:58;;;;;;;8.15;1.42;;;;;;;16.63;51.60;96295.28;4976962;28;20504;-74
2021/11/01 00:53:29;;;;;;;10.82;1.67;;;;;;;16.18;52.09;96290.38;4985427;28;20039;-74
2021/11/01 00:55:56;;;;;;;6.97;1.40;;;;;;;16.63;51.18;96296.06;4970826;28;20518;-76
2021/11/01 00:58:23;;;;;;;8.88;1.15;;;;;;;16.35;51.73;96280.94;4975219;28;20039;-76
2021/11/01 01:00:48;;;;;;;7.40;1.05;;;;;;;15.75;53.07;96285.00;4975309;28;20030;-76
2021/11/01 01:03:14;;;;;;;6.85;1.25;;;;;;;15.94;52.59;96283.41;4981973;28;20061;-76
2021/11/01 01:05:43;;;;;;;8.15;0.90;;;;;;;16.16;51.93;96283.75;4980393;28;20507;-76
2021/11/01 01:08:09;;;;;;;6.32;1.10;;;;;;;15.16;53.96;96268.84;4983964;28;20069;-75
2021/11/01 01:10:35;;;;;;;10.10;1.40;;;;;;;16.32;51.14;96280.91;4965768;28;20038;-76
2021/11/01 01:13:00;;;;;;;6.85;1.35;;;;;;;15.73;52.89;96279.16;4975648;28;20485;-77
2021/11/01 01:15:28;;;;;;;7.65;2.00;;;;;;;16.27;51.24;96281.19;4969680;28;20038;-76
2021/11/01 01:18:02;;;;;;;6.28;1.10;;;;;;;15.72;52.96;96276.78;4981953;28;20041;-75
2021/11/01 01:20:27;;;;;;;7.47;1.50;;;;;;;15.78;52.42;96281.56;4987452;28;20038;-75
2021/11/01 01:22:53;;;;;;;5.80;0.80;;;;;;;16.54;50.46;96282.75;4979575;28;20510;-75
2021/11/01 01:25:30;;;;;;;8.57;1.13;;;;;;;16.07;51.56;96287.50;4975413;28;20448;-76
2021/11/01 01:27:56;;;;;;;7.15;0.90;;;;;;;16.24;50.97;96277.28;4973007;28;20062;-75
2021/11/01 01:30:24;;;;;;;4.75;0.80;;;;;;;15.95;51.84;96266.78;4965454;28;20487;-75
2021/11/01 01:32:50;;;;;;;4.50;0.90;;;;;;;16.12;51.41;96266.63;4984512;28;20034;-76
2021/11/01 01:35:17;;;;;;;6.93;0.98;;;;;;;16.21;51.61;96278.81;4979811;28;20043;-75
2021/11/01 01:37:43;;;;;;;4.80;0.60;;;;;;;16.33;51.42;96282.47;4973285;28;20122;-75
2021/11/01 01:40:11;;;;;;;4.35;0.68;;;;;;;16.23;51.34;96281.13;4987658;28;20061;-76
2021/11/01 01:42:38;;;;;;;6.80;0.70;;;;;;;16.43;51.01;96283.75;4966716;28;20042;-76
2021/11/01 01:45:07;;;;;;;3.05;0.85;;;;;;;16.03;52.31;96283.16;4980510;28;20034;-77
2021/11/01 01:47:33;;;;;;;4.30;1.00;;;;;;;15.86;52.73;96274.31;4976158;28;20037;-74
2021/11/01 01:50:00;;;;;;;6.45;0.95;;;;;;;16.45;51.21;96279.53;4989487;28;20034;-77
2021/11/01 01:52:26;;;;;;;11.75;2.90;;;;;;;16.11;51.96;96290.28;4977430;28;20070;-76
2021/11/01 01:54:52;;;;;;;5.03;0.95;;;;;;;16.51;51.45;96285.41;4993437;28;20132;-76
2021/11/01 01:57:18;;;;;;;5.25;0.80;;;;;;;16.41;51.43;96302.34;4975385;28;20050;-76
2021/11/01 01:59:44;;;;;;;7.88;0.77;;;;;;;16.38;51.75;96293.78;4989793;28;20080;-76
2021/11/01 02:02:11;;;;;;;3.33;0.90;;;;;;;16.34;52.23;96292.94;4979347;28;20042;-77
2021/11/01 02:04:37;;;;;;;6.05;0.73;;;;;;;16.36;52.21;96298.03;4976321;28;20034;-76
2021/11/01 02:07:33;;;;;;;3.40;0.60;;;;;;;16.27;52.12;96298.25;4977440;28;20500;-76
2021/11/01 02:10:09;;;;;;;5.82;0.80;;;;;;;16.38;52.80;96295.72;4973839;28;20403;-76
2021/11/01 02:12:54;;;;;;;3.42;0.70;;;;;;;15.92;53.31;96293.84;4976818;28;20070;-75
2021/11/01 02:15:23;;;;;;;3.65;0.60;;;;;;;16.48;52.25;96288.88;4971701;28;20956;-76
2021/11/01 02:17:53;;;;;;;2.30;0.50;;;;;;;15.82;53.80;96289.75;4986972;28;20085;-75
2021/11/01 02:20:33;;;;;;;3.53;0.88;;;;;;;16.10;53.44;96292.19;4972976;28;20042;-75
2021/11/01 02:22:58;;;;;;;3.90;0.50;;;;;;;16.10;53.17;96297.63;4990165;28;20479;-75
2021/11/01 02:25:38;;;;;;;8.05;0.80;;;;;;;16.30;52.32;96291.34;4981434;28;20038;-75
2021/11/01 02:28:05;;;;;;;5.18;0.95;;;;;;;15.84;53.54;96290.19;4993584;28;20038;-75
2021/11/01 02:30:31;;;;;;;4.78;0.70;;;;;;;16.00;53.40;96284.66;4971282;28;20491;-75
2021/11/01 02:32:58;;;;;;;2.95;0.75;;;;;;;16.61;51.65;96297.59;4963831;28;20307;-74
2021/11/01 02:35:24;;;;;;;4.18;0.80;;;;;;;16.35;52.20;96293.75;4982361;28;20431;-75
2021/11/01 02:37:51;;;;;;;7.45;1.00;;;;;;;16.47;51.95;96295.44;4974172;28;20108;-74
2021/11/01 02:40:17;;;;;;;4.40;1.15;;;;;;;16.64;51.77;96303.06;4985787;28;20061;-74
2021/11/01 02:42:43;;;;;;;4.82;0.80;;;;;;;15.79;53.74;96310.28;4968094;28;20477;-74
2021/11/01 02:45:12;;;;;;;5.45;0.88;;;;;;;16.62;51.80;96308.06;4993075;28;20069;-75
2021/11/01 02:47:39;;;;;;;6.00;0.85;;;;;;;15.97;53.83;96301.69;4991481;28;20476;-75
2021/11/01 02:50:11;;;;;;;4.30;0.57;;;;;;;16.43;52.71;96305.47;4968648;28;20034;-75
2021/11/01 02:52:37;;;;;;;7.75;1.08;;;;;;;16.60;51.75;96310.38;4964331;28;20026;-75
2021/11/01 02:55:05;;;;;;;4.82;1.20;;;;;;;16.84;51.25;96297.53;4991056;28;20042;-75
2021/11/01 02:57:31;;;;;;;3.95;0.70;;;;;;;15.66;54.27;96301.50;4972954;28;20050;-75
2021/11/01 02:59:57;;;;;;;6.97;0.80;;;;;;;16.23;53.30;96305.56;4982450;28;20074;-75
2021/11/01 03:02:23;;;;;;;4.53;0.52;;;;;;;15.71;53.95;96305.06;4964683;28;20608;-75
2021/11/01 03:04:49;;;;;;;5.40;0.80;;;;;;;16.33;52.94;96325.91;4974255;28;20566;-75
2021/11/01 03:07:16;;;;;;;5.85;0.95;;;;;;;16.80;51.78;96313.78;4974161;28;20468;-75
2021/11/01 03:09:45;;;;;;;5.78;0.98;;;;;;;16.29;53.25;96325.84;4978610;28;20081;-74
2021/11/01 03:12:13;;;;;;;5.65;0.90;;;;;;;16.59;52.04;96318.91;4989296;28;20408;-74
2021/11/01 03:14:46;;;;;;;5.53;1.10;;;;;;;16.57;51.93;96327.41;4987693;28;20038;-75
2021/11/01 03:17:18;;;;;;;5.45;0.90;;;;;;;16.33;52.11;96323.97;4971673;28;20053;-74
2021/11/01 03:19:48;;;;;;;6.22;0.90;;;;;;;16.57;51.47;96326.63;4972331;28;20070;-75
2021/11/01 03:22:15;;;;;;;6.15;0.70;;;;;;;16.51;51.88;96329.66;4984072;28;20052;-75
2021/11/01 03:24:44;;;;;;;6.85;0.80;;;;;;;16.75;51.04;96338.53;4993061;28;20117;-75
2021/11/01 03:27:10;;;;;;;7.32;1.02;;;;;;;15.54;54.03;96325.31;4961239;28;20062;-75
2021/11/01 03:29:37;;;;;;;8.50;1.25;;;;;;;16.21;52.06;96333.09;4982431;28;20113;-75
2021/11/01 03:32:07;;;;;;;3.08;0.70;;;;;;;16.17;52.49;96328.75;4973456;28;20500;-76
2021/11/01 03:34:33;;;;;;;7.57;1.02;;;;;;;16.19;51.88;96332.69;4971056;28;20034;-76
2021/11/01 03:37:08;;;;;;;11.15;1.00;;;;;;;16.03;52.57;96335.50;4984853;28;20030;-76
2021/11/01 03:39:38;;;;;;;6.00;1.02;;;;;;;15.92;52.55;96346.19;4981452;28;20050;-75
2021/11/01 03:42:07;;;;;;;7.22;0.80;;;;;;;16.29;51.75;96338.66;4972501;28;20038;-77
2021/11/01 03:44:35;;;;;;;7.95;1.08;;;;;;;15.94;52.41;96346.63;4986658;28;20027;-75
2021/11/01 03:47:03;;;;;;;8.32;0.80;;;;;;;16.03;51.61;96345.59;4987808;28;20035;-75
2021/11/01 03:49:32;;;;;;;7.68;1.15;;;;;;;16.13;51.25;96346.91;4967303;28;20380;-75
2021/11/01 03:54:29;;;;;;;2.80;0.65;;;;;;;16.61;50.35;96347.25;4986741;28;20107;-76
2021/11/01 03:56:55;;;;;;;8.25;1.10;;;;;;;16.39;51.09;96348.88;4987062;28;20510;-75
2021/11/01 03:59:20;;;;;;;5.00;0.85;;;;;;;16.59;49.90;96365.84;4971328;28;20038;-76
2021/11/01 04:01:46;;;;;;;10.95;0.90;;;;;;;16.25;50.81;96368.44;4960770;28;20082;-74
2021/11/01 04:04:13;;;;;;;7.60;0.93;;;;;;;16.44;50.70;96369.50;4977859;28;20486;-75
2021/11/01 04:06:39;;;;;;;9.02;1.17;;;;;;;15.81;51.73;96359.53;4989903;28;20117;-75
2021/11/01 04:09:07;;;;;;;9.77;1.17;;;;;;;15.94;51.31;96357.47;4968606;28;20097;-77
2021/11/01 04:11:36;;;;;;;8.35;0.73;;;;;;;16.61;50.20;96369.00;4984961;28;20035;-77
2021/11/01 04:14:07;;;;;;;9.85;1.45;;;;;;;16.50;50.11;96363.41;4976834;28;20031;-77
2021/11/01 04:16:41;;;;;;;9.48;1.23;;;;;;;15.55;51.87;96364.84;4961988;28;20049;-76
2021/11/01 04:21:42;;;;;;;4.75;1.15;;;;;;;16.34;50.58;96387.22;4970067;28;20091;-75
2021/11/01 04:24:10;;;;;;;6.75;1.35;;;;;;;17.14;48.64;96386.47;4978996;28;20039;-78
2021/11/01 04:26:36;;;;;;;4.57;0.90;;;;;;;16.96;49.35;96397.88;4966965;28;20034;-76
2021/11/01 04:29:06;;;;;;;9.63;1.50;;;;;;;17.09;48.54;96400.38;4966421;28;20042;-76
2021/11/01 04:31:35;;;;;;;12.63;1.17;;;;;;;16.85;48.52;96394.22;4970687;28;20055;-74
2021/11/01 04:34:08;;;;;;;8.52;1.00;;;;;;;17.53;47.39;96409.88;4976201;28;20097;-77
2021/11/01 04:36:33;;;;;;;10.25;1.35;;;;;;;16.58;49.47;96394.19;4984865;28;20532;-77
2021/11/01 04:39:16;;;;;;;12.23;1.33;;;;;;;16.36;49.40;96395.78;4973303;28;20117;-78
2021/11/01 04:42:03;;;;;;;6.05;1.10;;;;;;;16.47;48.66;96402.19;4985286;28;20054;-78
2021/11/01 04:55:09;;;;;;;11.30;1.35;;;;;;;16.27;49.20;96417.75;4990686;28;19933;-77
2021/11/01 04:57:34;;;;;;;10.73;1.55;;;;;;;16.78;48.01;96410.38;4971447;28;20042;-78
2021/11/01 05:00:00;;;;;;;8.07;1.35;;;;;;;16.23;49.06;96412.25;4978017;28;20082;-78
2021/11/01 05:02:27;;;;;;;10.73;1.00;;;;;;;16.91;47.84;96413.69;4984093;28;20535;-78
2021/11/01 05:04:53;;;;;;;11.35;1.63;;;;;;;16.70;47.77;96420.38;4970654;28;20039;-78
2021/11/01 05:07:19;;;;;;;8.45;1.25;;;;;;;15.86;49.45;96409.22;4978538;28;20093;-78
2021/11/01 05:09:59;;;;;;;10.43;1.67;;;;;;;16.32;48.64;96431.00;4978831;28;20070;-78
2021/11/01 05:12:35;;;;;;;9.95;1.60;;;;;;;16.07;49.44;96389.88;5001577;28;20103;-75
2021/11/01 05:15:08;;;;;;;6.85;1.45;;;;;;;16.72;48.18;96415.38;4972199;28;20093;-77
2021/11/01 05:17:58;;;;;;;8.63;1.17;;;;;;;16.41;47.95;96408.25;4975107;28;20038;-78
2021/11/01 05:30:15;;;;;;;16.52;1.30;;;;;;;16.74;47.33;96428.56;4985306;28;20484;-79
2021/11/01 05:32:52;;;;;;;11.85;1.30;;;;;;;16.14;48.41;96436.16;4972202;28;20030;-80
2021/11/01 05:35:19;;;;;;;8.63;1.60;;;;;;;15.98;48.18;96427.31;4979553;28;20046;-79
2021/11/01 05:37:44;;;;;;;16.27;2.25;;;;;;;16.46;47.31;96432.41;4971734;28;20043;-79
2021/11/01 05:40:10;;;;;;;10.05;1.45;;;;;;;16.00;48.27;96438.59;4966206;28;20058;-77
2021/11/01 05:42:36;;;;;;;8.88;1.55;;;;;;;16.59;47.15;96450.06;4979097;28;20420;-79
2021/11/01 05:45:01;;;;;;;11.70;1.55;;;;;;;16.82;46.71;96450.06;4962281;28;20038;-78
2021/11/01 05:47:28;;;;;;;8.85;1.10;;;;;;;15.88;48.84;96453.88;4984811;28;20038;-78
2021/11/01 05:49:54;;;;;;;12.93;1.23;;;;;;;16.37;48.11;96466.00;4982461;28;20096;-78
2021/11/01 05:52:26;;;;;;;14.55;1.60;;;;;;;16.90;46.65;96470.00;4959760;28;20118;-78
2021/11/01 05:54:55;;;;;;;12.23;1.42;;;;;;;17.32;46.04;96457.41;4979968;28;20097;-80
2021/11/01 05:57:31;;;;;;;9.52;0.95;;;;;;;17.30;45.90;96461.66;4973738;28;20047;-81
2021/11/01 06:08:25;;;;;;;10.70;1.40;;;;;;;16.76;47.17;96473.25;4976976;28;20125;-79
2021/11/01 06:13:24;;;;;;;12.05;1.30;;;;;;;17.18;46.38;96474.31;4984658;28;20674;-79
2021/11/01 06:13:37;;;;;;;13.75;1.52;;;;;;;16.71;46.76;96472.78;4968143;28;20038;-80
2021/11/01 06:16:03;;;;;;;11.50;2.05;;;;;;;15.98;48.21;96479.66;4975495;28;20083;-80
2021/11/01 06:18:35;;;;;;;8.23;1.20;;;;;;;16.77;46.38;96482.19;4972045;28;20500;-81
2021/11/01 06:21:03;;;;;;;11.52;1.50;;;;;;;16.73;46.54;96486.78;4966743;28;20104;-79
2021/11/01 06:23:29;;;;;;;12.02;1.98;;;;;;;16.65;46.58;96489.38;4977456;28;20050;-79
2021/11/01 06:25:54;;;;;;;12.25;1.88;;;;;;;16.96;45.45;96493.00;4965724;28;20631;-81
2021/11/01 06:28:20;;;;;;;13.52;1.60;;;;;;;17.13;45.11;96480.06;4977468;28;20382;-80
2021/11/01 06:31:10;;;;;;;11.77;1.50;;;;;;;16.01;47.40;96484.38;4966434;28;20511;-79
2021/11/01 08:46:25;;;;;;;19.85;2.03;;;;;;;16.43;49.58;96624.03;4913212;29;20077;-76
2021/11/01 09:26:21;;;;;;;10.05;1.50;;;;;;;16.41;50.64;96696.16;4861925;29;20037;-75
2021/11/01 09:29:00;;;;;;;15.23;1.98;;;;;;;15.85;51.57;96695.28;4886495;29;20045;-75
2021/11/01 09:37:07;;;;;;;4.63;0.88;;;;;;;15.77;51.92;96710.59;4958336;28;20514;-75
2021/11/01 09:40:53;;;;;;;6.97;0.80;;;;;;;16.71;49.55;96725.47;4975618;28;20038;-76
2021/11/01 09:42:27;;;;;;;5.20;0.73;;;;;;;15.36;52.64;96727.84;4987307;28;20487;-75
2021/11/01 09:44:53;;;;;;;6.43;0.60;;;;;;;16.65;49.46;96716.84;4983013;28;20041;-75
2021/11/01 09:47:19;;;;;;;6.95;1.00;;;;;;;15.99;51.50;96732.88;4983552;28;20042;-75
2021/11/01 09:49:45;;;;;;;4.00;0.70;;;;;;;16.00;51.27;96737.94;4984951;28;20555;-75
2021/11/01 09:52:11;;;;;;;3.53;0.82;;;;;;;16.89;49.30;96748.41;4980654;28;20042;-74
2021/11/01 09:54:38;;;;;;;4.72;0.90;;;;;;;16.74;49.63;96758.19;4984214;28;20053;-73
2021/11/01 09:57:09;;;;;;;3.00;0.47;;;;;;;16.65;50.04;96771.19;4990850;28;20488;-73
2021/11/01 09:59:40;;;;;;;4.25;0.60;;;;;;;16.09;51.23;96762.19;4982821;28;20101;-74
2021/11/01 10:02:15;;;;;;;3.13;0.50;;;;;;;16.55;50.48;96772.50;4987863;28;20108;-73
2021/11/01 10:04:44;;;;;;;5.63;0.85;;;;;;;15.13;52.98;96770.22;4979996;28;20035;-74
2021/11/01 10:07:19;;;;;;;1.77;0.40;;;;;;;16.18;49.99;96775.56;4975028;28;20506;-73
2021/11/01 10:10:18;;;;;;;2.90;0.50;;;;;;;15.25;51.89;96774.81;4972352;28;20041;-74
2021/11/01 10:12:45;;;;;;;3.72;0.57;;;;;;;16.03;50.57;96777.97;4969444;28;20600;-77
2021/11/01 10:18:19;;;;;;;3.28;1.67;;;;;;;15.64;51.05;96778.53;4964382;28;20034;-76
2021/11/01 10:20:53;;;;;;;0.65;0.22;;;;;;;15.11;52.26;96767.88;4978348;28;20034;-72
2021/11/01 10:23:34;;;;;;;2.65;0.40;;;;;;;15.28;51.53;96766.75;4988929;28;20121;-71
2021/11/01 10:26:12;;;;;;;0.85;0.10;;;;;;;15.46;50.84;96742.03;4954611;28;20042;-72
2021/11/01 10:28:38;;;;;;;3.80;0.30;;;;;;;14.64;53.43;96777.34;4975741;28;20030;-72
2021/11/01 10:31:09;;;;;;;0.75;0.30;;;;;;;14.82;53.50;96783.31;4986556;28;20073;-73
2021/11/01 10:33:46;;;;;;;1.35;0.32;;;;;;;15.02;53.11;96792.38;4989543;28;20034;-73
2021/11/01 10:36:32;;;;;;;1.73;0.22;;;;;;;15.06;52.41;96790.56;4975523;28;20053;-74
2021/11/01 10:39:11;;;;;;;1.80;0.13;;;;;;;15.27;52.48;96796.94;4970972;28;20399;-75
2021/11/01 10:42:13;;;;;;;2.90;0.10;;;;;;;14.84;53.67;96791.88;4982735;28;20050;-75
2021/11/01 11:20:04;;;;;;;0.68;0.20;;;;;;;15.56;51.82;96871.72;4981173;28;20027;-75
2021/11/01 11:47:38;;;;;;;;;;;;;;;16.46;49.72;96907.75;4980004;28;20027;-74
2021/11/01 11:50:15;;;;;;;1.35;0.63;;;;;;;15.46;52.14;96910.16;4968797;28;20450;-73
2021/11/01 11:52:41;;;;;;;1.48;0.45;;;;;;;16.49;50.31;96926.06;4986824;28;20122;-72
2021/11/01 11:55:20;;;;;;;1.88;0.40;;;;;;;15.78;51.97;96912.97;4961758;28;20045;-72
2021/11/01 11:57:59;;;;;;;1.10;0.35;;;;;;;15.98;51.25;96924.03;4979065;28;20057;-74
2021/11/01 12:00:27;;;;;;;3.13;0.60;;;;;;;15.89;51.48;96935.03;4985238;28;20436;-74
2021/11/01 12:02:55;;;;;;;2.80;0.45;;;;;;;16.12;50.94;96940.69;4986181;28;20479;-74
2021/11/01 12:05:31;;;;;;;2.38;0.40;;;;;;;16.01;50.94;96931.47;4970436;28;20073;-74
2021/11/01 12:08:10;;;;;;;1.83;0.63;;;;;;;16.16;51.04;96936.13;4980825;28;20026;-73
2021/11/01 12:18:56;;;;;;;3.88;0.95;;;;;;;15.92;51.19;96946.00;4992992;28;20074;-73
2021/11/01 12:21:23;;;;;;;4.93;0.80;;;;;;;15.92;51.29;96945.19;4977211;28;20429;-72
2021/11/01 12:23:50;;;;;;;5.93;0.90;;;;;;;16.67;49.49;96953.69;4985659;28;20057;-72
2021/11/01 12:26:18;;;;;;;3.78;0.70;;;;;;;16.89;48.90;96949.53;4977857;28;20030;-72
2021/11/01 12:28:50;;;;;;;3.42;0.80;;;;;;;16.56;49.11;96950.69;4975979;28;20030;-73
2021/11/01 12:31:16;;;;;;;6.68;1.48;;;;;;;15.54;50.76;96960.00;4971236;28;20026;-74
2021/11/01 12:33:53;;;;;;;4.97;0.95;;;;;;;15.61;51.00;96963.69;4989030;28;20037;-74
2021/11/01 12:36:43;;;;;;;6.15;1.17;;;;;;;16.02;50.09;96963.69;4978892;28;20046;-74
2021/11/01 12:39:45;;;;;;;3.92;0.98;;;;;;;15.20;52.23;96954.75;4985129;28;20049;-73
2021/11/01 12:58:51;;;;;;;2.63;0.77;;;;;;;16.36;49.41;96994.06;4983821;28;20037;-73
2021/11/01 13:01:18;;;;;;;2.80;0.75;;;;;;;16.24;50.10;96997.63;4981384;28;20035;-73
2021/11/01 13:04:06;;;;;;;6.43;1.00;;;;;;;16.20;50.07;97006.81;4989342;28;20027;-73
2021/11/01 13:07:02;;;;;;;4.15;0.80;;;;;;;15.70;51.24;97008.88;4970566;28;20506;-72
2021/11/01 13:09:31;;;;;;;4.75;0.70;;;;;;;16.67;49.25;97016.19;4983901;28;20133;-72
2021/11/01 13:19:55;;;;;;;4.10;0.88;;;;;;;16.09;51.26;97022.81;4986768;28;20034;-73
2021/11/01 13:22:27;;;;;;;1.88;0.63;;;;;;;16.51;50.38;97018.88;4972962;28;20116;-73
2021/11/01 13:25:02;;;;;;;6.18;0.88;;;;;;;16.81;50.11;97029.34;4975410;28;20089;-73
2021/11/01 13:35:46;;;;;;;;;;;;;;;17.06;49.17;97035.41;4976920;28;20081;-73
2021/11/01 13:38:13;;;;;;;8.80;0.98;;;;;;;16.71;50.12;97030.63;4976306;28;19929;-72
2021/11/01 13:40:45;;;;;;;7.32;1.00;;;;;;;17.16;49.93;97034.09;4995734;28;20717;-73
2021/11/01 13:43:10;;;;;;;9.30;1.50;;;;;;;17.20;49.32;97039.59;4978313;28;20030;-73
2021/11/01 13:45:37;;;;;;;7.75;1.38;;;;;;;16.46;49.94;97049.00;4990029;28;20046;-73
2021/11/01 13:48:03;;;;;;;9.85;1.67;;;;;;;17.12;49.01;97033.22;4976137;28;20038;-73
2021/11/01 13:50:37;;;;;;;9.18;1.17;;;;;;;17.05;49.39;97044.69;4994483;28;20038;-73
2021/11/01 13:53:12;;;;;;;6.50;1.30;;;;;;;17.16;48.09;97042.25;4983075;28;20420;-73
2021/11/01 13:55:47;;;;;;;14.43;1.55;;;;;;;17.90;47.35;97050.84;4980135;28;20042;-72
2021/11/01 13:58:33;;;;;;;9.05;1.38;;;;;;;16.92;49.71;97056.78;4993067;28;20507;-73
2021/11/01 14:10:52;;;;;;;5.80;1.80;;;;;;;17.04;49.24;97059.44;4973034;28;20035;-72
2021/11/01 14:17:57;;;;;;;7.90;1.67;;;;;;;18.11;46.81;97070.38;4975888;28;20035;-72
2021/11/01 14:20:53;;;;;;;12.55;1.50;;;;;;;17.69;47.57;97065.56;4971273;28;20038;-72
2021/11/01 14:34:40;;;;;;;15.25;1.75;;;;;;;16.45;50.30;97094.41;4885352;29;20044;-74
2021/11/01 14:59:40;;;;;;;15.70;2.15;;;;;;;17.37;48.57;97125.50;4873896;29;20062;-71
2021/11/01 15:02:08;;;;;;;13.02;2.25;;;;;;;16.70;50.05;97129.63;4881004;29;20040;-73
2021/11/01 15:17:47;;;;;;;18.20;3.55;;;;;;;17.53;48.01;97144.53;4979679;28;20038;-71
2021/11/01 15:19:54;;;;;;;15.35;2.17;;;;;;;17.73;47.49;97147.34;4971612;28;20089;-72
2021/11/01 15:31:22;;;;;;;12.48;1.95;;;;;;;18.23;45.87;97148.44;4586145;28;9999823;-71
2021/11/01 15:39:33;;;;;;;15.85;2.05;;;;;;;18.87;44.66;97161.78;4911246;29;20040;-69
2021/11/01 16:17:55;;;;;;;18.20;2.63;;;;;;;17.65;45.39;97207.00;4970851;28;20070;-71
2021/11/01 16:20:21;;;;;;;10.30;1.75;;;;;;;17.83;44.91;97207.44;4977940;28;20038;-72
2021/11/01 16:22:50;;;;;;;11.98;2.08;;;;;;;18.24;44.28;97225.50;4960095;28;20073;-72
2021/11/01 16:25:16;;;;;;;9.25;1.60;;;;;;;18.43;43.58;97217.38;4969347;28;20407;-71
2021/11/01 16:27:47;;;;;;;14.55;2.17;;;;;;;18.51;42.83;97226.50;4973723;28;20574;-71
2021/11/01 16:30:18;;;;;;;9.15;1.70;;;;;;;18.56;42.81;97231.66;4974854;28;20038;-71
2021/11/01 16:32:47;;;;;;;15.35;2.38;;;;;;;17.83;43.83;97236.63;4963437;28;20053;-71
2021/11/01 16:35:20;;;;;;;11.25;2.10;;;;;;;17.76;44.33;97245.41;4975832;28;20123;-71
2021/11/01 16:37:52;;;;;;;16.30;2.17;;;;;;;17.96;44.36;97254.44;4967036;28;20034;-71
2021/11/01 16:40:17;;;;;;;10.90;2.13;;;;;;;18.38;43.37;97257.75;4973422;28;20034;-71
2021/11/01 16:42:46;;;;;;;13.85;2.42;;;;;;;17.67;44.55;97258.41;4971808;28;20057;-71
2021/11/01 16:47:42;;;;;;;16.92;2.55;;;;;;;18.38;43.35;97271.38;4965750;28;20034;-71
2021/11/01 16:50:10;;;;;;;12.95;1.98;;;;;;;18.23;43.37;97273.78;4964216;28;20044;-70
2021/11/01 16:52:36;;;;;;;14.20;1.98;;;;;;;18.11;43.80;97274.66;4971690;28;20523;-70
2021/11/01 16:55:08;;;;;;;20.02;3.55;;;;;;;18.27;43.94;97279.28;4973479;28;20648;-69
2021/11/01 16:57:43;;;;;;;32.70;13.25;;;;;;;18.34;43.60;97287.63;4965592;28;20065;-72
2021/11/01 17:03:06;;;;;;;15.55;4.07;;;;;;;18.16;43.28;97280.97;4975793;28;20080;-70
2021/11/01 17:21:53;;;;;;;10.45;1.70;;;;;;;18.14;43.58;97287.56;4915138;29;20549;-69
2021/11/01 18:37:22;;;;;;;15.70;3.17;;;;;;;17.77;44.43;97366.75;4975792;28;20519;-71
2021/11/01 18:42:14;;;;;;;12.70;3.20;;;;;;;17.75;44.19;97360.88;4969891;28;20034;-71
2021/11/01 18:53:01;;;;;;;14.25;2.47;;;;;;;17.53;45.17;97378.53;4965299;28;20042;-72
2021/11/01 18:55:27;;;;;;;20.63;3.17;;;;;;;17.33;45.36;97381.13;4975402;28;20350;-72
2021/11/01 18:57:54;;;;;;;17.67;2.30;;;;;;;17.46;45.51;97379.16;4967797;28;20066;-72
2021/11/01 19:00:19;;;;;;;14.13;2.25;;;;;;;17.55;45.37;97382.53;4968340;28;20480;-72
2021/11/01 19:02:48;;;;;;;8.48;2.30;;;;;;;17.83;44.68;97389.88;4966190;28;20055;-71
2021/11/01 20:06:39;;;;;;;10.00;2.38;;;;;;;17.53;45.16;97435.69;4962879;28;20057;-71
2021/11/01 21:26:48;;;;;;;23.98;4.53;;;;;;;17.04;43.43;97469.25;4933269;28;20086;-70
2021/11/01 21:29:14;;;;;;;2.95;0.98;;;;;;;16.78;43.98;97476.59;4976681;28;20170;-72
2021/11/01 21:31:39;;;;;;;5.85;2.80;;;;;;;16.63;44.21;97483.47;4968442;28;20113;-71
2021/11/01 21:34:07;;;;;;;3.50;1.05;;;;;;;16.80;44.10;97498.78;4974494;28;20052;-71
2021/11/01 21:36:34;;;;;;;1.08;0.60;;;;;;;16.62;44.49;97489.25;4970038;28;20031;-71
2021/11/01 21:39:00;;;;;;;1.60;0.77;;;;;;;16.52;45.06;97498.63;4972524;28;20113;-71
2021/11/01 21:41:28;;;;;;;4.55;1.02;;;;;;;16.80;44.73;97503.44;4978409;28;20048;-70
2021/11/01 21:43:55;;;;;;;3.03;1.45;;;;;;;16.76;44.77;97510.66;4968784;28;20418;-72
2021/11/01 21:46:21;;;;;;;2.45;1.00;;;;;;;16.82;44.64;97501.94;4978931;28;20042;-72
2021/11/01 21:48:46;;;;;;;4.82;2.83;;;;;;;16.93;44.67;97512.38;4976536;28;20061;-73
2021/11/01 21:51:16;;;;;;;9.55;3.45;;;;;;;16.84;44.95;97517.94;4968481;28;20101;-72
2021/11/01 21:54:14;;;;;;;2.15;1.17;;;;;;;16.49;45.55;97508.25;4971323;28;20037;-73
2021/11/01 21:56:33;;;;;;;4.53;1.65;;;;;;;16.23;46.17;97519.38;4969896;28;20049;-72
2021/11/01 22:09:45;;;;;;;3.67;1.55;;;;;;;16.18;46.38;97506.81;4971921;28;20035;-71
2021/11/01 22:21:21;;;;;;;7.35;3.20;;;;;;;16.27;46.57;97511.38;4920268;29;20048;-70
2021/11/01 22:44:40;;;;;;;9.68;4.57;;;;;;;16.08;47.18;97501.81;4927343;29;20716;-73
2021/11/01 22:57:50;;;;;;;6.10;3.10;;;;;;;16.58;45.51;97508.16;4980019;28;19934;-72
2021/11/01 23:00:21;;;;;;;9.40;3.85;;;;;;;16.36;45.82;97506.66;4980388;28;20023;-73
2021/11/01 23:02:55;;;;;;;6.97;3.42;;;;;;;16.73;44.97;97508.63;4969661;28;20038;-73
2021/11/01 23:05:44;;;;;;;9.70;3.40;;;;;;;16.86;44.58;97499.38;4975899;28;20042;-73
2021/11/01 23:32:48;;;;;;;4.70;2.40;;;;;;;16.46;45.57;97506.22;4964925;28;20039;-72
2021/11/01 23:35:14;;;;;;;3.75;2.75;;;;;;;16.47;45.78;97505.09;4984101;28;20042;-73
2021/11/01 23:37:40;;;;;;;5.35;2.22;;;;;;;16.27;45.52;97511.38;4983135;28;20034;-72
2021/11/01 23:40:06;;;;;;;8.15;2.38;;;;;;;16.49;45.00;97507.44;4978942;28;20035;-73
2021/11/01 23:42:33;;;;;;;4.20;2.33;;;;;;;16.49;44.72;97504.72;4977994;28;20419;-72
2021/11/01 23:44:58;;;;;;;5.90;2.20;;;;;;;16.25;45.97;97506.25;4964446;28;20412;-72
2021/11/01 23:47:24;;;;;;;3.30;1.80;;;;;;;16.01;46.78;97504.28;4977089;28;20804;-72
2021/11/01 23:49:50;;;;;;;2.70;1.60;;;;;;;16.10;46.38;97508.47;4980295;28;20443;-72
2021/11/01 23:52:16;;;;;;;3.78;1.38;;;;;;;15.62;47.58;97512.53;4972444;28;20027;-72
2021/11/01 23:54:45;;;;;;;5.47;1.65;;;;;;;15.72;47.16;97517.56;4983459;28;20042;-72
2021/11/01 23:57:14;;;;;;;3.78;1.27;;;;;;;15.51;47.74;97512.13;4967742;28;20049;-72
2021/11/01 23:59:43;;;;;;;3.67;1.20;;;;;;;15.04;49.15;97505.72;4974373;28;20487;-72
